Time;durP1;ratioP1;P1;durP2;ratioP2;P2;SDS_P1;SDS_P2;PMS_P1;PMS_P2;Temp;Humidity;BMP_temperature;BMP_pressure;BME280_temperature;BME280_humidity;BME280_pressure;Samples;Min_cycle;Max_cycle;Signal;HPM_P1;HPM_P2
2022/08/22 00:02:36;;;;;;;;;5.00;4.00;;;;;21.45;66.25;100720.13;4995188;28;45450;-86
2022/08/22 00:05:07;;;;;;;;;4.00;3.67;;;;;21.41;66.38;100716.59;5011867;28;45356;-85
2022/08/22 00:07:51;;;;;;;;;4.00;4.00;;;;;21.39;65.63;100710.38;5013042;28;45140;-85
2022/08/22 00:10:23;;;;;;;;;4.67;3.00;;;;;21.42;64.81;100712.94;5011573;28;46196;-86
2022/08/22 00:12:58;;;;;;;;;3.00;3.00;;;;;21.42;65.15;100710.25;5013557;28;44770;-85
2022/08/22 00:15:56;;;;;;;;;6.33;4.00;;;;;21.41;65.09;100713.00;5013731;28;45502;-86
2022/08/22 00:18:33;;;;;;;;;4.00;4.00;;;;;21.38;65.22;100701.34;5012036;28;45730;-86
2022/08/22 00:21:16;;;;;;;;;3.00;3.00;;;;;21.39;65.11;100702.25;5012285;28;45663;-86
2022/08/22 00:23:53;;;;;;;;;4.00;4.00;;;;;21.41;64.82;100691.34;5011763;28;45787;-86
2022/08/22 00:26:47;;;;;;;;;5.67;3.00;;;;;21.42;64.41;100691.31;5010447;28;45339;-86
2022/08/22 00:29:20;;;;;;;;;6.00;4.00;;;;;21.42;64.35;100691.31;5008937;28;45400;-87
2022/08/22 00:32:00;;;;;;;;;4.00;4.00;;;;;21.40;64.61;100693.19;4992873;28;45531;-87
2022/08/22 00:34:36;;;;;;;;;4.67;4.67;;;;;21.38;64.55;100690.50;5010501;28;45387;-87
2022/08/22 00:40:35;;;;;;;;;2.00;2.00;;;;;21.28;63.44;100688.16;5016298;28;44814;-85
2022/08/22 00:43:47;;;;;;;;;3.00;3.00;;;;;21.22;63.39;100694.63;5051281;28;45507;-86
2022/08/22 00:46:31;;;;;;;;;4.00;4.00;;;;;21.18;63.23;100698.38;5034285;28;44758;-86
2022/08/22 00:49:00;;;;;;;;;4.33;4.00;;;;;21.16;63.70;100702.94;5051274;28;45766;-86
2022/08/22 00:51:34;;;;;;;;;4.00;4.00;;;;;21.13;63.30;100712.03;5033640;28;45399;-87
2022/08/22 00:54:22;;;;;;;;;4.67;1.67;;;;;21.13;63.54;100712.03;5033161;28;47979;-86
2022/08/22 00:57:08;;;;;;;;;4.00;3.67;;;;;21.12;63.70;100703.97;5032410;28;45442;-86
2022/08/22 00:59:55;;;;;;;;;3.00;3.00;;;;;21.14;63.31;100702.09;5032799;28;45340;-86
2022/08/22 01:02:42;;;;;;;;;4.67;2.00;;;;;21.14;63.52;100696.69;5051750;28;45332;-86
2022/08/22 01:05:27;;;;;;;;;5.67;4.00;;;;;21.15;63.44;100703.88;5024714;28;47305;-86
2022/08/22 01:08:40;;;;;;;;;4.00;4.00;;;;;21.13;63.41;100711.16;5025743;28;45662;-86
2022/08/22 01:11:33;;;;;;;;;4.00;2.00;;;;;21.22;63.54;100709.97;5026660;28;44778;-87
2022/08/22 01:14:34;;;;;;;;;4.00;4.00;;;;;21.17;63.75;100702.91;5026119;28;45351;-86
2022/08/22 01:17:32;;;;;;;;;2.00;2.00;;;;;21.20;63.64;100701.91;4968980;28;45745;-86
2022/08/22 01:20:29;;;;;;;;;3.00;3.00;;;;;21.17;63.42;100691.19;4963004;28;44855;-86
2022/08/22 01:23:13;;;;;;;;;3.67;3.33;;;;;21.14;63.19;100702.09;4970049;28;45416;-86
2022/08/22 01:26:09;;;;;;;;;2.33;2.33;;;;;21.10;63.27;100695.00;4969394;28;44847;-86
2022/08/22 01:28:56;;;;;;;;;2.33;2.33;;;;;21.04;63.61;100696.06;4968621;28;47014;-86
2022/08/22 01:31:43;;;;;;;;;3.33;3.33;;;;;21.01;63.87;100690.78;4969192;28;45393;-86
2022/08/22 01:34:27;;;;;;;;;4.33;4.33;;;;;20.88;63.56;100675.84;4969090;28;45428;-86
2022/08/22 01:37:14;;;;;;;;;5.00;3.00;;;;;20.91;63.59;100678.47;4969996;28;45645;-86
2022/08/22 01:40:09;;;;;;;;;3.00;3.00;;;;;20.87;63.72;100683.06;4969199;28;47084;-86
2022/08/22 01:42:55;;;;;;;;;3.00;3.00;;;;;20.84;64.19;100682.28;4910934;28;45314;-86
2022/08/22 01:45:41;;;;;;;;;5.00;4.00;;;;;20.79;63.78;100677.00;4885447;28;44747;-86
2022/08/22 01:48:19;;;;;;;;;2.00;2.00;;;;;20.76;63.94;100675.28;4911913;28;44920;-86
2022/08/22 01:50:52;;;;;;;;;3.67;3.67;;;;;20.80;64.10;100676.06;4912608;28;47003;-86
2022/08/22 01:53:22;;;;;;;;;4.50;2.75;;;;;20.76;63.91;100674.38;4913366;28;44921;-86
2022/08/22 01:56:15;;;;;;;;;2.00;2.00;;;;;20.77;64.44;100681.56;4969335;28;45368;-86
2022/08/22 01:59:07;;;;;;;;;3.67;3.00;;;;;20.73;64.04;100683.47;4952828;28;45386;-85
2022/08/22 02:01:48;;;;;;;;;6.67;4.67;;;;;20.67;64.00;100685.47;4969674;28;47099;-86
2022/08/22 02:04:28;;;;;;;;;2.67;2.00;;;;;20.61;63.99;100688.34;4967634;28;45375;-87
2022/08/22 02:07:25;;;;;;;;;3.00;2.67;;;;;20.55;63.68;100686.66;4967044;28;45369;-86
2022/08/22 02:10:18;;;;;;;;;4.00;3.00;;;;;20.57;63.83;100696.50;4969960;28;44910;-84
2022/08/22 02:13:12;;;;;;;;;2.33;2.33;;;;;20.54;63.48;100685.78;4968886;28;45551;-87
2022/08/22 02:15:38;;;;;;;;;4.00;3.00;;;;;20.48;64.06;100680.56;4968149;28;45348;-86
2022/08/22 02:18:03;;;;;;;;;3.00;3.00;;;;;20.44;63.95;100684.28;4975879;28;45344;-86
2022/08/22 02:20:47;;;;;;;;;4.00;4.00;;;;;20.43;63.46;100690.59;5027614;28;45411;-86
2022/08/22 02:23:51;;;;;;;;;2.33;2.33;;;;;20.40;63.64;100677.19;5026657;28;48378;-86
2022/08/22 02:26:56;;;;;;;;;2.00;2.00;;;;;20.38;63.71;100687.16;5009517;28;44736;-87
2022/08/22 02:29:57;;;;;;;;;4.00;2.33;;;;;20.35;63.90;100685.41;5027489;28;45601;-87
2022/08/22 02:32:40;;;;;;;;;2.00;2.00;;;;;20.33;63.91;100680.97;5027662;28;44889;-86
2022/08/22 02:35:15;;;;;;;;;1.33;1.33;;;;;20.25;64.09;100672.19;5011605;28;45419;-86
2022/08/22 02:38:18;;;;;;;;;3.00;3.00;;;;;20.33;63.98;100683.66;5029156;28;45465;-85
2022/08/22 02:40:58;;;;;;;;;2.00;2.00;;;;;20.36;64.47;100694.41;5029946;28;44828;-86
2022/08/22 02:43:46;;;;;;;;;4.00;4.00;;;;;20.37;64.30;100690.75;5012645;28;44833;-85
2022/08/22 02:46:45;;;;;;;;;2.00;2.00;;;;;20.38;63.99;100684.44;5029091;28;45409;-86
2022/08/22 02:49:15;;;;;;;;;3.00;3.00;;;;;20.42;64.20;100690.63;5015485;28;45454;-86
2022/08/22 02:51:46;;;;;;;;;4.00;4.00;;;;;20.43;64.00;100679.78;5015518;28;45405;-86
2022/08/22 02:54:16;;;;;;;;;5.00;3.67;;;;;20.46;64.04;100674.31;5026961;28;45449;-86
2022/08/22 02:56:56;;;;;;;;;4.00;3.33;;;;;20.45;64.15;100675.22;5027243;28;46901;-86
2022/08/22 02:59:28;;;;;;;;;4.00;4.00;;;;;20.51;63.82;100684.97;5044337;28;45484;-85
2022/08/22 03:01:55;;;;;;;;;5.00;5.00;;;;;20.47;63.78;100673.38;5028037;28;45412;-85
2022/08/22 03:04:26;;;;;;;;;4.00;4.00;;;;;20.52;64.42;100681.34;5027839;28;45364;-86
2022/08/22 03:07:13;;;;;;;;;3.00;3.00;;;;;20.49;64.17;100679.63;5031295;28;45404;-85
2022/08/22 03:10:07;;;;;;;;;4.00;4.00;;;;;20.44;64.07;100673.47;5049246;28;45535;-85
2022/08/22 03:13:06;;;;;;;;;5.00;4.67;;;;;20.47;64.56;100683.28;5031359;28;45457;-86
2022/08/22 03:15:38;;;;;;;;;5.00;3.33;;;;;20.42;64.77;100671.72;5028591;28;45530;-86
2022/08/22 03:18:21;;;;;;;;;5.67;3.67;;;;;20.44;64.53;100676.16;5031101;28;48028;-86
2022/08/22 03:20:57;;;;;;;;;4.67;4.00;;;;;20.46;64.83;100682.41;5035528;28;45732;-85
2022/08/22 03:23:38;;;;;;;;;3.67;3.00;;;;;20.46;65.16;100681.50;5053038;28;45278;-85
2022/08/22 03:26:39;;;;;;;;;4.00;4.00;;;;;20.46;64.86;100676.09;5034901;28;44905;-86
2022/08/22 03:29:12;;;;;;;;;6.00;6.00;;;;;20.44;65.27;100681.56;5050413;28;45400;-86
2022/08/22 03:32:06;;;;;;;;;5.00;5.00;;;;;20.46;65.23;100681.50;5055957;28;45390;-85
2022/08/22 03:34:33;;;;;;;;;5.67;4.00;;;;;20.39;65.71;100670.00;5036399;28;45227;-85
2022/08/22 03:37:17;;;;;;;;;4.00;4.00;;;;;20.38;65.66;100669.13;5051086;28;45423;-86
2022/08/22 03:40:04;;;;;;;;;3.00;3.00;;;;;20.35;65.63;100674.59;5032166;28;46876;-85
2022/08/22 03:42:52;;;;;;;;;4.33;4.33;;;;;20.34;66.47;100672.84;5051717;28;44839;-85
2022/08/22 03:45:58;;;;;;;;;6.33;4.00;;;;;20.29;66.66;100668.47;5044237;28;44991;-86
2022/08/22 03:48:48;;;;;;;;;4.00;4.00;;;;;20.25;66.79;100673.06;5032987;28;45625;-86
2022/08/22 03:51:25;;;;;;;;;6.67;6.67;;;;;20.25;67.04;100673.06;5030224;28;47188;-87
2022/08/22 03:54:16;;;;;;;;;4.33;4.33;;;;;20.21;67.04;100667.81;5030395;28;46136;-87
2022/08/22 03:57:20;;;;;;;;;4.33;4.33;;;;;20.18;67.31;100669.66;5029139;28;45453;-87
2022/08/22 03:59:48;;;;;;;;;6.33;5.00;;;;;20.11;67.53;100659.06;5031602;28;45383;-87
2022/08/22 04:02:35;;;;;;;;;5.00;5.00;;;;;20.07;67.68;100660.94;5030595;28;45881;-87
2022/08/22 04:05:32;;;;;;;;;4.67;4.67;;;;;20.07;67.75;100655.53;5030151;28;45458;-87
2022/08/22 04:08:16;;;;;;;;;4.00;4.00;;;;;19.97;68.18;100648.63;5030411;28;44798;-86
2022/08/22 04:10:55;;;;;;;;;2.33;2.33;;;;;19.99;68.13;100649.47;5032261;28;44811;-85
2022/08/22 04:13:39;;;;;;;;;6.67;6.67;;;;;19.95;68.57;100648.66;5031668;28;48167;-86
2022/08/22 04:17:02;;;;;;;;;6.00;4.00;;;;;19.92;68.97;100653.25;5032539;28;45339;-86
2022/08/22 04:26:40;;;;;;;;;2.33;2.33;;;;;19.86;69.34;100658.81;4989622;28;45323;-87
2022/08/22 04:29:17;;;;;;;;;3.67;3.67;;;;;19.83;68.75;100646.28;4970915;28;45797;-85
2022/08/22 04:32:07;;;;;;;;;4.00;3.67;;;;;19.89;68.29;100659.59;4990015;28;45265;-86
2022/08/22 04:34:37;;;;;;;;;7.00;4.00;;;;;19.90;68.50;100650.59;4991094;28;45415;-86
2022/08/22 04:37:34;;;;;;;;;6.33;5.00;;;;;19.91;68.17;100656.88;4991747;28;45449;-85
2022/08/22 04:40:10;;;;;;;;;4.00;3.00;;;;;19.89;68.15;100640.72;4974796;28;45552;-86
2022/08/22 04:42:44;;;;;;;;;3.67;3.67;;;;;19.86;68.56;100637.22;4972551;28;45418;-85
2022/08/22 04:45:21;;;;;;;;;5.33;4.00;;;;;19.70;68.96;100632.19;4972570;28;44969;-86
2022/08/22 04:48:15;;;;;;;;;4.33;4.33;;;;;19.85;68.68;100657.91;4972366;28;46756;-86
2022/08/22 04:51:22;;;;;;;;;4.33;4.00;;;;;19.86;68.89;100669.63;4976280;28;45344;-86
2022/08/22 04:54:15;;;;;;;;;4.00;4.00;;;;;19.83;69.01;100675.09;4879923;29;45812;-86
2022/08/22 04:56:40;;;;;;;;;4.00;4.00;;;;;19.83;68.29;100681.34;4894691;29;45487;-86
2022/08/22 04:59:17;;;;;;;;;3.00;3.00;;;;;19.88;68.36;100675.88;4895421;29;45206;-86
2022/08/22 05:01:47;;;;;;;;;5.67;4.67;;;;;19.91;68.95;100664.97;4895137;29;45424;-86
2022/08/22 05:04:39;;;;;;;;;5.33;5.00;;;;;19.89;68.83;100669.53;4915032;28;45598;-87
2022/08/22 05:07:21;;;;;;;;;5.00;4.00;;;;;19.86;68.52;100681.28;4913418;29;44966;-86
2022/08/22 05:10:00;;;;;;;;;5.67;5.33;;;;;19.93;68.51;100693.69;4912165;29;47293;-86
2022/08/22 05:12:36;;;;;;;;;4.33;4.00;;;;;19.97;68.19;100699.91;4913536;29;44953;-86
2022/08/22 05:15:25;;;;;;;;;4.67;4.67;;;;;20.05;68.15;100691.63;4914808;28;44904;-86
2022/08/22 05:17:54;;;;;;;;;2.67;2.67;;;;;20.08;68.38;100681.63;4914467;29;45438;-86
2022/08/22 05:20:23;;;;;;;;;5.00;5.00;;;;;19.94;68.26;100651.41;4914597;28;46788;-86
2022/08/22 05:23:01;;;;;;;;;4.00;4.00;;;;;20.08;67.96;100675.34;4911366;28;45445;-87
2022/08/22 05:25:32;;;;;;;;;6.00;4.67;;;;;20.15;67.78;100688.63;4912836;28;45335;-86
2022/08/22 05:28:16;;;;;;;;;5.33;5.33;;;;;20.17;68.12;100691.28;4911320;28;45028;-86
2022/08/22 05:30:46;;;;;;;;;4.00;4.00;;;;;20.16;67.55;100684.13;5009957;28;47034;-86
2022/08/22 05:33:11;;;;;;;;;4.00;4.00;;;;;20.27;67.54;100706.31;5009850;28;44928;-87
2022/08/22 05:35:40;;;;;;;;;5.67;4.00;;;;;20.29;66.54;100700.88;5007637;28;45472;-86
2022/08/22 05:38:12;;;;;;;;;5.00;5.00;;;;;20.32;67.24;100703.50;5021979;28;45022;-86
2022/08/22 05:40:39;;;;;;;;;5.00;4.67;;;;;20.31;66.73;100704.44;5007304;28;47417;-86
2022/08/22 05:43:10;;;;;;;;;4.67;4.00;;;;;20.28;66.73;100689.22;5009013;28;45351;-85
2022/08/22 05:45:39;;;;;;;;;3.33;3.00;;;;;20.39;66.79;100705.13;5008579;28;45490;-85
2022/08/22 05:48:11;;;;;;;;;6.67;4.00;;;;;20.39;66.63;100708.69;4991853;28;45632;-85
2022/08/22 05:50:40;;;;;;;;;5.67;5.67;;;;;20.36;66.15;100702.50;5009303;28;47081;-85
2022/08/22 05:53:05;;;;;;;;;4.33;4.33;;;;;20.35;66.69;100700.72;5011063;28;44704;-86
2022/08/22 05:55:49;;;;;;;;;7.00;5.00;;;;;20.41;66.51;100705.94;5026261;28;45255;-86
2022/08/22 05:58:44;;;;;;;;;7.67;6.00;;;;;20.48;66.52;100718.38;5027693;28;45544;-85
2022/08/22 06:01:32;;;;;;;;;6.00;6.00;;;;;20.60;66.46;100721.69;5008069;28;47156;-85
2022/08/22 06:04:13;;;;;;;;;6.33;5.00;;;;;20.72;66.20;100706.03;5009505;28;45418;-86
2022/08/22 06:06:54;;;;;;;;;7.33;6.67;;;;;20.84;65.65;100704.78;5015087;28;45442;-85
2022/08/22 06:09:44;;;;;;;;;5.67;3.33;;;;;20.96;65.39;100717.94;5010355;28;45404;-85
2022/08/22 06:12:38;;;;;;;;;4.00;3.50;;;;;21.12;64.98;100715.66;5027769;28;47400;-86
2022/08/22 06:19:03;;;;;;;;;6.00;6.00;;;;;21.34;64.09;100702.38;5012439;28;45410;-85
2022/08/22 06:21:36;;;;;;;;;4.00;4.00;;;;;21.49;63.72;100708.25;5010630;28;45543;-86
2022/08/22 06:24:07;;;;;;;;;6.00;6.00;;;;;21.72;62.81;100711.13;5011338;28;47903;-86
2022/08/22 06:26:41;;;;;;;;;5.00;5.00;;;;;21.84;61.74;100711.66;5010546;28;45317;-85
2022/08/22 06:29:08;;;;;;;;;6.67;5.00;;;;;21.82;60.85;100710.84;5009802;28;45443;-86
2022/08/22 06:32:02;;;;;;;;;4.00;4.00;;;;;21.69;60.98;100704.91;5011600;28;45285;-87
2022/08/22 06:34:34;;;;;;;;;5.67;4.00;;;;;21.62;61.35;100716.91;4993934;28;46054;-85
2022/08/22 06:37:04;;;;;;;;;6.00;6.00;;;;;21.69;61.58;100713.94;5010994;28;45386;-85
2022/08/22 06:39:37;;;;;;;;;6.00;6.00;;;;;21.72;61.18;100715.66;5009159;28;45477;-85
2022/08/22 06:45:30;;;;;;;;;4.00;4.00;;;;;21.93;61.03;100716.75;5010813;28;45454;-84
2022/08/22 06:48:15;;;;;;;;;1.00;1.00;;;;;22.20;60.44;100722.16;5029375;28;45323;-84
2022/08/22 06:50:44;;;;;;;;;8.00;6.00;;;;;22.39;60.23;100712.50;5047577;28;44838;-85
2022/08/22 06:53:18;;;;;;;;;7.00;6.33;;;;;22.54;59.58;100700.22;5033240;28;44943;-84
2022/08/22 06:55:56;;;;;;;;;6.00;6.00;;;;;22.64;59.63;100695.34;5033287;28;47159;-84
2022/08/22 06:58:29;;;;;;;;;5.33;5.33;;;;;22.75;58.87;100693.16;5051290;28;45414;-84
2022/08/22 07:00:59;;;;;;;;;6.00;5.33;;;;;22.83;59.02;100699.16;5051845;28;45529;-84
2022/08/22 07:03:35;;;;;;;;;3.33;3.00;;;;;22.91;58.48;100716.03;5034437;28;45348;-83
2022/08/22 07:06:02;;;;;;;;;6.00;5.33;;;;;22.96;58.45;100724.84;5036272;28;45463;-84
2022/08/22 07:08:31;;;;;;;;;6.00;5.67;;;;;22.99;57.57;100723.00;5035037;28;45363;-84
2022/08/22 07:14:27;;;;;;;;;6.00;6.00;;;;;23.02;57.67;100722.91;5050157;28;45442;-84
2022/08/22 07:17:07;;;;;;;;;6.33;5.67;;;;;23.05;57.37;100733.66;5032249;28;47089;-84
2022/08/22 07:19:47;;;;;;;;;6.67;5.33;;;;;22.95;57.32;100723.09;5024725;28;44832;-83
2022/08/22 07:22:34;;;;;;;;;7.00;6.00;;;;;23.05;57.59;100742.66;5010153;28;44774;-83
2022/08/22 07:25:11;;;;;;;;;5.67;5.67;;;;;23.05;56.90;100739.97;5017295;28;45891;-85
2022/08/22 07:27:46;;;;;;;;;5.00;5.00;;;;;23.00;56.98;100746.47;5029924;28;45441;-84
2022/08/22 07:30:23;;;;;;;;;4.00;4.00;;;;;22.81;57.46;100733.59;5014102;28;45506;-85
2022/08/22 07:33:09;;;;;;;;;4.33;4.00;;;;;22.87;57.68;100741.50;4977221;28;44936;-84
2022/08/22 07:35:48;;;;;;;;;5.00;4.67;;;;;22.95;58.05;100746.63;5010979;28;45624;-86
2022/08/22 07:45:08;;;;;;;;;4.00;4.00;;;;;23.26;57.81;100738.25;5031413;28;45399;-84
2022/08/22 07:47:58;;;;;;;;;6.33;5.00;;;;;23.41;56.76;100741.28;5032166;28;45467;-85
2022/08/22 07:50:34;;;;;;;;;4.00;4.00;;;;;23.46;56.96;100736.59;5015756;28;45222;-85
2022/08/22 07:53:25;;;;;;;;;4.00;4.00;;;;;23.55;56.65;100747.97;5001270;28;45550;-84
2022/08/22 07:55:55;;;;;;;;;6.00;4.67;;;;;23.45;57.05;100732.09;4973215;28;45438;-85
2022/08/22 07:58:29;;;;;;;;;7.67;5.33;;;;;23.48;56.52;100742.84;4990974;28;45438;-85
2022/08/22 08:00:56;;;;;;;;;6.00;4.33;;;;;23.54;56.22;100738.03;5013428;28;45536;-86
2022/08/22 08:03:25;;;;;;;;;6.67;6.00;;;;;23.54;56.61;100729.03;5027458;28;44911;-85
2022/08/22 08:05:53;;;;;;;;;5.00;5.00;;;;;23.62;55.93;100734.16;5013389;28;45429;-85
2022/08/22 08:08:29;;;;;;;;;6.00;6.00;;;;;23.70;56.10;100737.44;5012429;28;45096;-86
2022/08/22 08:10:59;;;;;;;;;6.33;6.00;;;;;23.71;55.55;100723.81;5010505;28;45237;-85
2022/08/22 08:13:32;;;;;;;;;5.00;5.00;;;;;23.70;55.55;100713.88;4992128;28;45507;-85
2022/08/22 08:15:59;;;;;;;;;5.67;5.33;;;;;23.93;54.72;100750.09;5013784;28;45312;-86
2022/08/22 08:18:31;;;;;;;;;6.33;6.33;;;;;23.81;54.84;100713.44;5015963;28;45308;-87
2022/08/22 08:21:16;;;;;;;;;6.33;6.00;;;;;24.11;55.03;100738.44;4997499;28;46728;-85
2022/08/22 08:23:51;;;;;;;;;6.00;6.00;;;;;24.26;53.97;100758.69;4995912;28;44865;-86
2022/08/22 08:26:25;;;;;;;;;6.00;6.00;;;;;24.14;54.48;100727.47;4999828;28;45243;-85
2022/08/22 08:28:57;;;;;;;;;8.00;6.00;;;;;24.24;53.84;100727.06;5015446;28;45294;-86
2022/08/22 08:31:37;;;;;;;;;10.00;9.00;;;;;24.48;53.78;100753.19;4994911;28;46586;-86
2022/08/22 08:34:08;;;;;;;;;7.67;6.67;;;;;24.47;53.88;100739.66;5010148;28;45399;-87
2022/08/22 08:36:40;;;;;;;;;8.00;6.33;;;;;24.66;53.63;100746.09;5013800;28;45448;-86
2022/08/22 08:39:17;;;;;;;;;4.33;4.00;;;;;24.78;53.46;100747.38;5029296;28;46343;-85
2022/08/22 08:42:11;;;;;;;;;6.00;6.00;;;;;24.98;53.21;100753.75;5015998;28;45474;-88
2022/08/22 08:45:07;;;;;;;;;7.00;6.33;;;;;25.09;52.31;100743.28;5027829;28;45458;-88
2022/08/22 08:48:00;;;;;;;;;6.67;6.67;;;;;25.15;52.01;100742.97;4996286;28;45411;-86
2022/08/22 08:50:45;;;;;;;;;7.67;7.67;;;;;25.07;51.67;100717.97;4993573;28;45414;-86
2022/08/22 08:53:25;;;;;;;;;8.00;8.00;;;;;25.20;51.49;100735.47;5011445;28;46538;-85
2022/08/22 08:56:18;;;;;;;;;6.67;6.67;;;;;25.17;51.66;100722.03;5023260;28;44876;-86
2022/08/22 09:02:28;;;;;;;;;4.33;4.33;;;;;25.21;51.27;100720.00;5022930;28;45384;-85
2022/08/22 09:05:27;;;;;;;;;6.00;4.33;;;;;25.24;51.73;100709.91;5023112;28;46526;-85
2022/08/22 09:08:22;;;;;;;;;8.67;6.00;;;;;25.05;51.03;100671.78;5021824;28;45062;-85
2022/08/22 09:10:56;;;;;;;;;3.00;3.00;;;;;25.25;51.16;100711.69;5043922;28;45595;-86
2022/08/22 09:13:28;;;;;;;;;6.33;6.00;;;;;25.25;50.71;100705.34;5034117;28;45324;-86
2022/08/22 09:16:23;;;;;;;;;7.00;7.00;;;;;25.13;50.46;100701.34;5022281;28;47437;-83
2022/08/22 09:19:26;;;;;;;;;5.67;3.67;;;;;25.19;50.91;100714.66;5021503;28;44973;-86
2022/08/22 09:22:30;;;;;;;;;6.00;6.00;;;;;25.25;51.12;100706.25;5015370;28;45496;-87
2022/08/22 09:25:38;;;;;;;;;3.00;3.00;;;;;25.38;50.55;100713.81;5016114;28;45216;-88
2022/08/22 09:28:24;;;;;;;;;6.00;6.00;;;;;25.39;50.77;100704.69;5021661;28;46392;-86
2022/08/22 09:31:18;;;;;;;;;7.33;6.67;;;;;25.47;50.63;100716.06;4955804;28;44956;-86
2022/08/22 09:34:02;;;;;;;;;5.00;5.00;;;;;25.43;50.29;100699.03;4965958;28;44803;-86
2022/08/22 09:36:50;;;;;;;;;3.33;3.33;;;;;25.47;50.23;100703.38;4940121;28;45564;-86
2022/08/22 09:39:34;;;;;;;;;4.67;4.67;;;;;25.44;49.81;100689.00;4953767;28;45438;-86
2022/08/22 09:42:34;;;;;;;;;4.67;4.00;;;;;25.45;49.28;100664.44;4971674;28;45498;-85
2022/08/22 09:45:05;;;;;;;;;3.33;3.33;;;;;25.71;47.90;100695.84;4963752;28;45260;-85
2022/08/22 09:47:50;;;;;;;;;4.00;3.00;;;;;25.60;48.25;100668.22;4965078;28;45467;-86
2022/08/22 09:50:48;;;;;;;;;3.67;3.67;;;;;25.89;48.41;100690.41;4950853;28;45512;-86
2022/08/22 09:54:01;;;;;;;;;6.00;4.33;;;;;25.93;48.53;100694.78;4918657;28;44843;-88
2022/08/22 09:56:57;;;;;;;;;4.00;4.00;;;;;25.92;48.57;100684.84;4876965;29;44934;-87
2022/08/22 09:59:56;;;;;;;;;5.67;5.67;;;;;25.98;48.17;100681.81;4875102;29;45698;-86
2022/08/22 10:02:49;;;;;;;;;4.00;2.67;;;;;25.77;47.35;100666.50;4876178;29;46964;-87
2022/08/22 10:05:45;;;;;;;;;2.67;2.67;;;;;25.73;47.41;100691.19;4876266;29;45368;-86
2022/08/22 10:08:41;;;;;;;;;6.00;4.00;;;;;25.62;48.38;100701.72;4903624;28;44820;-88
2022/08/22 10:11:13;;;;;;;;;3.00;3.00;;;;;25.66;48.32;100689.72;4897916;29;45447;-87
2022/08/22 10:13:50;;;;;;;;;3.00;3.00;;;;;25.73;47.41;100688.47;4911840;29;45389;-86
2022/08/22 10:16:38;;;;;;;;;4.33;3.00;;;;;25.73;47.83;100688.47;4895534;28;45526;-86
2022/08/22 10:19:42;;;;;;;;;4.00;4.00;;;;;25.63;47.23;100684.44;4910812;29;44925;-88
2022/08/22 10:22:38;;;;;;;;;4.00;4.00;;;;;25.63;47.76;100691.72;4913594;28;44863;-87
2022/08/22 10:25:30;;;;;;;;;4.00;4.00;;;;;25.71;47.82;100692.19;4919153;28;45462;-87
2022/08/22 10:28:18;;;;;;;;;2.00;2.00;;;;;25.69;47.93;100681.41;4915557;28;45357;-86
2022/08/22 10:31:05;;;;;;;;;4.33;4.33;;;;;25.80;48.14;100680.00;4975968;28;45529;-87
2022/08/22 10:33:55;;;;;;;;;3.33;3.33;;;;;25.96;48.43;100680.13;5011811;28;45577;-87
2022/08/22 10:36:34;;;;;;;;;5.00;5.00;;;;;26.13;47.67;100682.84;4982872;28;45267;-87
2022/08/22 10:39:06;;;;;;;;;6.00;6.00;;;;;26.12;47.36;100662.03;5008658;28;45953;-85
2022/08/22 10:41:55;;;;;;;;;2.67;2.67;;;;;26.17;47.35;100657.19;4993145;28;45250;-87
2022/08/22 10:45:14;;;;;;;;;1.67;1.67;;;;;26.22;47.03;100690.56;5005060;28;44963;-84
2022/08/22 10:48:08;;;;;;;;;3.00;3.00;;;;;25.87;47.43;100660.50;4952274;28;46463;-88
2022/08/22 10:50:47;;;;;;;;;3.00;3.00;;;;;25.98;48.06;100679.09;4955298;28;45321;-85
2022/08/22 10:53:41;;;;;;;;;4.33;4.33;;;;;26.10;48.05;100681.16;4970556;28;45547;-87
2022/08/22 10:56:39;;;;;;;;;3.67;3.67;;;;;26.22;47.77;100671.47;4955058;28;44918;-89
2022/08/22 11:05:47;;;;;;;;;3.33;3.33;;;;;26.49;45.98;100677.31;5735326;22;45954;-87
2022/08/22 11:08:43;;;;;;;;;4.33;4.33;;;;;26.32;46.40;100675.47;5036640;28;45500;-88
2022/08/22 11:11:49;;;;;;;;;1.75;1.75;;;;;26.28;47.11;100681.19;5052078;28;45493;-88
2022/08/22 11:14:23;;;;;;;;;3.00;3.00;;;;;26.38;47.56;100685.19;5048922;28;44740;-89
2022/08/22 11:17:19;;;;;;;;;3.00;3.00;;;;;26.52;47.53;100684.44;5032282;28;44982;-86
2022/08/22 11:20:18;;;;;;;;;4.75;3.00;;;;;26.47;46.80;100664.72;5031322;28;45389;-89
2022/08/22 11:26:44;;;;;;;;;3.67;3.67;;;;;26.85;47.06;100664.53;5035557;28;45308;-90
2022/08/22 11:29:25;;;;;;;;;4.00;2.67;;;;;26.82;45.60;100664.69;5032178;28;45334;-91
2022/08/22 11:32:21;;;;;;;;;3.00;3.00;;;;;26.57;46.29;100666.00;5049118;28;45304;-88
2022/08/22 11:35:04;;;;;;;;;2.75;2.75;;;;;26.66;46.35;100661.91;5069962;28;45232;-87
2022/08/22 11:37:46;;;;;;;;;4.00;2.67;;;;;26.80;46.34;100651.13;5040769;28;45499;-86
2022/08/22 11:40:44;;;;;;;;;3.00;3.00;;;;;27.08;46.51;100661.38;5032081;28;44895;-86
2022/08/22 11:43:34;;;;;;;;;0.67;0.67;;;;;27.21;46.47;100664.31;5066301;28;45299;-89
2022/08/22 11:49:28;;;;;;;;;4.00;3.33;;;;;27.41;45.45;100648.66;5031282;28;45602;-85
2022/08/22 11:52:22;;;;;;;;;3.00;2.33;;;;;27.53;45.57;100650.66;5030872;28;45534;-88
2022/08/22 11:54:56;;;;;;;;;1.33;1.33;;;;;27.63;44.94;100641.00;5052053;28;45117;-87
2022/08/22 11:57:40;;;;;;;;;2.50;2.25;;;;;27.73;45.04;100646.78;5050055;28;46757;-89
2022/08/22 12:00:36;;;;;;;;;5.00;3.00;;;;;27.99;44.96;100647.97;5034764;28;45377;-87
2022/08/22 12:03:13;;;;;;;;;1.33;1.33;;;;;28.12;45.38;100653.63;5052871;28;44954;-87
2022/08/22 12:09:19;;;;;;;;;2.33;2.33;;;;;28.39;44.73;100645.56;5033628;28;44982;-86
2022/08/22 12:12:17;;;;;;;;;3.33;3.33;;;;;28.53;44.17;100651.06;5026933;28;45314;-87
2022/08/22 12:14:43;;;;;;;;;1.33;1.33;;;;;28.57;43.23;100645.44;5032449;28;44873;-86
2022/08/22 12:17:46;;;;;;;;;2.33;2.33;;;;;28.40;42.66;100636.38;5035329;28;44853;-87
2022/08/22 12:20:50;;;;;;;;;1.33;1.33;;;;;28.16;43.81;100638.78;5035282;28;46987;-87
2022/08/22 12:23:28;;;;;;;;;2.33;2.33;;;;;28.04;44.41;100637.66;5043722;28;45259;-86
2022/08/22 12:26:07;;;;;;;;;4.67;2.00;;;;;28.10;44.35;100640.03;5035312;28;45426;-86
2022/08/22 12:28:58;;;;;;;;;2.00;2.00;;;;;28.09;44.45;100631.91;5022790;28;45874;-86
2022/08/22 12:32:02;;;;;;;;;1.00;1.00;;;;;28.26;44.57;100639.09;5017385;28;45745;-85
2022/08/22 12:34:43;;;;;;;;;2.00;1.25;;;;;28.53;43.73;100636.53;5041517;28;45425;-89
2022/08/22 12:37:37;;;;;;;;;0.25;0.25;;;;;28.64;44.11;100619.41;5036248;28;45433;-86
2022/08/22 12:40:36;;;;;;;;;2.67;1.33;;;;;28.90;43.82;100610.44;5045728;28;45300;-88
2022/08/22 12:43:20;;;;;;;;;2.00;2.00;;;;;29.13;42.71;100619.03;5024034;28;45703;-86
2022/08/22 12:46:11;;;;;;;;;1.33;1.33;;;;;29.16;43.20;100617.94;5035359;28;45430;-85
2022/08/22 12:48:58;;;;;;;;;1.00;1.00;;;;;29.20;42.48;100614.91;5036916;28;45502;-86
2022/08/22 12:51:42;;;;;;;;;0.33;0.33;;;;;29.17;42.86;100617.84;5034887;28;44850;-86
2022/08/22 12:54:37;;;;;;;;;0.00;0.00;;;;;29.16;42.42;100607.88;5034779;28;45972;-86
2022/08/22 12:57:44;;;;;;;;;0.67;0.67;;;;;29.12;42.91;100611.78;5036975;28;45515;-87
2022/08/22 13:00:16;;;;;;;;;1.67;1.33;;;;;29.13;43.14;100608.09;5025946;28;45526;-85
2022/08/22 13:02:44;;;;;;;;;2.00;2.00;;;;;29.06;42.74;100596.59;5039726;28;45384;-88
2022/08/22 13:05:23;;;;;;;;;1.00;1.00;;;;;29.07;43.31;100608.47;5051932;28;46201;-87
2022/08/22 13:07:56;;;;;;;;;0.00;0.00;;;;;29.13;43.09;100616.31;5052407;28;45188;-87
2022/08/22 13:10:39;;;;;;;;;0.33;0.33;;;;;29.25;43.31;100617.34;5029191;28;44934;-85
2022/08/22 13:13:12;;;;;;;;;0.33;0.00;;;;;29.34;42.71;100604.91;5061425;28;45378;-86
2022/08/22 13:15:52;;;;;;;;;0.00;0.00;;;;;29.42;43.14;100608.00;5052472;28;45463;-86
2022/08/22 13:18:24;;;;;;;;;1.00;1.00;;;;;29.52;42.79;100615.50;5047406;28;44760;-87
2022/08/22 13:21:28;;;;;;;;;1.00;0.00;;;;;29.51;42.51;100607.38;5059287;28;44762;-87
2022/08/22 13:23:57;;;;;;;;;1.00;1.00;;;;;29.43;42.69;100598.78;4939003;28;44918;-87
2022/08/22 13:26:48;;;;;;;;;1.00;1.00;;;;;29.60;42.50;100595.78;4964515;28;45466;-87
2022/08/22 13:29:20;;;;;;;;;0.00;0.00;;;;;29.75;42.31;100609.47;4953645;28;44836;-87